createdAt,value
2018-09-05T00:01:46.681Z,101344.67
2018-09-05T00:04:15.084Z,101349.84
2018-09-05T00:06:43.446Z,101352.08
2018-09-05T00:09:11.824Z,101355.47
2018-09-05T00:11:40.612Z,101346.65
2018-09-05T00:14:09.508Z,101352.45
2018-09-05T00:16:37.913Z,101349.73
2018-09-05T00:19:06.465Z,101343.93
2018-09-05T00:21:34.924Z,101342.95
2018-09-05T00:24:03.286Z,101346.65
2018-09-05T00:26:31.628Z,101343.74
2018-09-05T00:28:59.988Z,101347.44
2018-09-05T00:31:28.361Z,101343.94
2018-09-05T00:33:56.736Z,101345.78
2018-09-05T00:36:25.126Z,101347.25
2018-09-05T00:38:53.495Z,101345.09
2018-09-05T00:41:21.880Z,101342.68
2018-09-05T00:43:50.268Z,101347.36
2018-09-05T00:46:18.630Z,101348.22
2018-09-05T00:48:47.044Z,101347.23
2018-09-05T00:51:15.449Z,101342.40
2018-09-05T00:53:43.805Z,101346.47
2018-09-05T00:56:12.167Z,101347.73
2018-09-05T00:58:40.540Z,101345.41
2018-09-05T01:01:08.911Z,101352.77
2018-09-05T01:03:37.300Z,101349.75
2018-09-05T01:06:05.659Z,101348.51
2018-09-05T01:09:58.442Z,101351.41
2018-09-05T01:12:26.815Z,101358.27
2018-09-05T01:14:55.812Z,101358.13
2018-09-05T01:17:24.176Z,101353.50
2018-09-05T01:19:52.535Z,101345.26
2018-09-05T01:22:20.890Z,101347.28
2018-09-05T01:24:49.284Z,101352.61
2018-09-05T01:27:17.639Z,101353.35
2018-09-05T01:29:45.988Z,101353.74
2018-09-05T01:32:14.329Z,101349.67
2018-09-05T01:34:42.941Z,101354.30
2018-09-05T01:37:11.738Z,101355.38
2018-09-05T01:39:40.109Z,101348.68
2018-09-05T01:42:09.521Z,101356.82
2018-09-05T01:44:37.888Z,101355.33
2018-09-05T01:47:06.296Z,101363.08
2018-09-05T01:49:34.712Z,101363.08
2018-09-05T01:52:03.092Z,101367.14
2018-09-05T01:54:31.435Z,101363.74
2018-09-05T01:56:59.811Z,101361.06
2018-09-05T01:59:28.195Z,101365.69
2018-09-05T02:01:56.570Z,101363.39
2018-09-05T02:04:24.937Z,101363.46
2018-09-05T02:06:53.286Z,101364.53
2018-09-05T02:09:21.652Z,101358.76
2018-09-05T02:11:49.977Z,101358.76
2018-09-05T02:14:18.317Z,101357.30
2018-09-05T02:16:46.692Z,101355.08
2018-09-05T02:19:15.051Z,101351.30
2018-09-05T02:21:43.377Z,101353.89
2018-09-05T02:24:11.706Z,101348.27
2018-09-05T02:26:40.054Z,101357.97
2018-09-05T02:29:08.430Z,101360.47
2018-09-05T02:31:36.784Z,101363.95
2018-09-05T02:34:05.134Z,101366.06
2018-09-05T02:36:33.474Z,101368.12
2018-09-05T02:39:01.849Z,101366.25
2018-09-05T02:41:30.184Z,101371.48
2018-09-05T02:44:03.816Z,101373.13
2018-09-05T02:46:32.164Z,101373.13
2018-09-05T02:49:00.516Z,101372.63
2018-09-05T02:51:28.866Z,101374.66
2018-09-05T02:53:57.210Z,101371.66
2018-09-05T02:56:25.621Z,101368.08
2018-09-05T02:58:53.999Z,101367.77
2018-09-05T03:01:22.444Z,101369.44
2018-09-05T03:03:50.864Z,101368.95
2018-09-05T03:06:19.200Z,101368.27
2018-09-05T03:08:47.576Z,101373.19
2018-09-05T03:11:15.929Z,101377.64
2018-09-05T03:13:44.271Z,101372.22
2018-09-05T03:16:12.617Z,101381.49
2018-09-05T03:18:40.961Z,101380.80
2018-09-05T03:21:09.312Z,101384.38
2018-09-05T03:23:37.706Z,101385.49
2018-09-05T03:26:06.070Z,101387.81
2018-09-05T03:28:34.418Z,101387.50
2018-09-05T03:31:02.772Z,101386.46
2018-09-05T03:33:31.136Z,101381.91
2018-09-05T03:35:59.536Z,101386.05
2018-09-05T03:38:27.868Z,101386.05
2018-09-05T03:40:56.604Z,101391.22
2018-09-05T03:43:24.923Z,101388.31
2018-09-05T03:45:53.263Z,101392.20
2018-09-05T03:48:21.614Z,101391.02
2018-09-05T03:50:54.088Z,101395.19
2018-09-05T03:53:22.539Z,101394.59
2018-09-05T03:55:50.870Z,101397.23
2018-09-05T03:58:19.191Z,101395.22
2018-09-05T04:00:47.572Z,101404.05
2018-09-05T04:03:15.917Z,101398.34
2018-09-05T04:05:44.261Z,101402.91
2018-09-05T04:08:12.574Z,101397.76
2018-09-05T04:10:40.973Z,101403.88
2018-09-05T04:13:09.338Z,101404.26
2018-09-05T04:15:37.697Z,101400.02
2018-09-05T04:18:06.053Z,101402.38
2018-09-05T04:20:34.398Z,101408.36
2018-09-05T04:23:02.711Z,101399.35
2018-09-05T04:25:31.027Z,101404.22
2018-09-05T04:27:59.351Z,101405.27
2018-09-05T04:30:27.670Z,101398.48
2018-09-05T04:32:55.988Z,101402.45
2018-09-05T04:35:24.343Z,101403.94
2018-09-05T04:37:52.662Z,101408.77
2018-09-05T04:40:20.992Z,101401.98
2018-09-05T04:42:49.307Z,101403.45
2018-09-05T04:45:17.700Z,101413.04
2018-09-05T04:47:45.992Z,101411.68
2018-09-05T04:50:14.319Z,101411.30
2018-09-05T04:52:42.750Z,101420.23
2018-09-05T04:55:11.061Z,101420.89
2018-09-05T04:57:39.427Z,101421.58
2018-09-05T05:00:07.758Z,101420.82
2018-09-05T05:02:36.131Z,101421.92
2018-09-05T05:05:04.482Z,101423.17
2018-09-05T05:07:32.840Z,101430.16
2018-09-05T05:10:01.172Z,101427.75
2018-09-05T05:12:29.544Z,101427.85
2018-09-05T05:14:57.878Z,101432.89
2018-09-05T05:17:26.227Z,101431.36
2018-09-05T05:19:54.579Z,101431.63
2018-09-05T05:22:22.911Z,101436.80
2018-09-05T05:24:51.264Z,101443.20
2018-09-05T05:27:19.608Z,101447.47
2018-09-05T05:29:47.957Z,101442.83
2018-09-05T05:32:16.297Z,101445.74
2018-09-05T05:34:44.650Z,101436.24
2018-09-05T05:37:12.996Z,101444.09
2018-09-05T05:39:41.333Z,101442.25
2018-09-05T05:42:09.731Z,101442.55
2018-09-05T05:44:38.060Z,101445.05
2018-09-05T05:47:06.470Z,101445.72
2018-09-05T05:49:34.828Z,101445.36
2018-09-05T05:52:03.162Z,101447.69
2018-09-05T05:54:31.528Z,101444.38
2018-09-05T05:56:59.853Z,101445.55
2018-09-05T05:59:28.209Z,101447.89
2018-09-05T06:01:56.591Z,101447.48
2018-09-05T06:04:24.943Z,101453.89
2018-09-05T06:06:53.276Z,101451.38
2018-09-05T06:09:21.611Z,101453.52
2018-09-05T06:11:49.961Z,101450.02
2018-09-05T06:14:18.309Z,101452.82
2018-09-05T06:16:46.645Z,101456.81
2018-09-05T06:19:14.967Z,101458.56
2018-09-05T06:21:43.304Z,101462.56
2018-09-05T06:24:11.651Z,101467.69
2018-09-05T06:26:40.025Z,101464.67
2018-09-05T06:29:08.363Z,101462.75
2018-09-05T06:31:36.716Z,101468.07
2018-09-05T06:34:05.289Z,101468.18
2018-09-05T06:36:33.576Z,101472.71
2018-09-05T06:39:01.994Z,101467.27
2018-09-05T06:41:30.346Z,101474.67
2018-09-05T06:43:58.692Z,101474.45
2018-09-05T06:46:27.022Z,101477.39
2018-09-05T06:48:55.358Z,101476.22
2018-09-05T06:51:23.739Z,101474.67
2018-09-05T06:54:28.576Z,101474.26
2018-09-05T06:56:56.900Z,101475.00
2018-09-05T06:59:25.230Z,101477.94
2018-09-05T07:01:53.545Z,101480.36
2018-09-05T07:04:21.943Z,101483.64
2018-09-05T07:06:50.310Z,101477.86
2018-09-05T07:09:18.653Z,101479.34
2018-09-05T07:11:47.025Z,101478.75
2018-09-05T07:14:15.415Z,101478.84
2018-09-05T07:16:43.736Z,101477.28
2018-09-05T07:19:12.912Z,101469.50
2018-09-05T07:21:41.292Z,101474.55
2018-09-05T07:24:09.615Z,101471.63
2018-09-05T07:26:38.430Z,101470.71
2018-09-05T07:29:06.838Z,101470.23
2018-09-05T07:31:35.196Z,101469.47
2018-09-05T07:34:04.117Z,101469.94
2018-09-05T07:36:32.465Z,101470.09
2018-09-05T07:39:00.812Z,101468.05
2018-09-05T07:41:29.191Z,101468.64
2018-09-05T07:43:57.526Z,101475.91
2018-09-05T07:46:25.847Z,101476.11
2018-09-05T07:48:54.169Z,101473.31
2018-09-05T07:51:22.520Z,101471.36
2018-09-05T07:53:50.883Z,101472.00
2018-09-05T07:56:19.246Z,101472.13
2018-09-05T07:58:47.575Z,101470.25
2018-09-05T08:01:15.977Z,101470.17
2018-09-05T08:03:44.326Z,101472.64
2018-09-05T08:06:12.673Z,101473.16
2018-09-05T08:08:41.036Z,101472.27
2018-09-05T08:11:09.390Z,101468.66
2018-09-05T08:13:37.764Z,101472.16
2018-09-05T08:16:06.628Z,101458.47
2018-09-05T08:18:34.964Z,101473.28
2018-09-05T08:21:03.358Z,101465.91
2018-09-05T08:23:31.690Z,101469.89
2018-09-05T08:26:00.055Z,101466.83
2018-09-05T08:28:28.404Z,101469.06
2018-09-05T08:30:56.762Z,101465.11
2018-09-05T08:33:25.101Z,101471.63
2018-09-05T08:35:53.783Z,101465.51
2018-09-05T08:38:21.998Z,101459.22
2018-09-05T08:40:51.147Z,101460.08
2018-09-05T08:43:19.527Z,101457.17
2018-09-05T08:45:48.081Z,101455.50
2018-09-05T08:48:16.341Z,101454.66
2018-09-05T08:50:44.624Z,101451.64
2018-09-05T08:53:13.205Z,101442.48
2018-09-05T08:55:41.509Z,101451.38
2018-09-05T08:58:09.872Z,101450.05
2018-09-05T09:00:38.275Z,101446.57
2018-09-05T09:03:06.678Z,101452.05
2018-09-05T09:05:35.001Z,101445.24
2018-09-05T09:08:03.332Z,101449.67
2018-09-05T09:10:31.671Z,101454.27
2018-09-05T09:13:00.015Z,101454.41
2018-09-05T09:15:28.349Z,101448.02
2018-09-05T09:17:56.679Z,101455.02
2018-09-05T09:20:25.011Z,101455.30
2018-09-05T09:22:53.340Z,101455.14
2018-09-05T09:25:21.683Z,101455.00
2018-09-05T09:27:50.010Z,101461.37
2018-09-05T09:30:18.335Z,101460.45
2018-09-05T09:32:46.674Z,101453.50
2018-09-05T09:35:15.040Z,101461.48
2018-09-05T09:37:43.337Z,101448.91
2018-09-05T09:40:11.699Z,101442.20
2018-09-05T09:42:40.299Z,101439.84
2018-09-05T09:45:08.638Z,101432.38
2018-09-05T09:47:36.985Z,101436.22
2018-09-05T09:50:05.366Z,101425.99
2018-09-05T09:52:37.924Z,101422.69
2018-09-05T09:55:07.667Z,101423.63
2018-09-05T09:57:36.408Z,101416.23
2018-09-05T10:00:04.955Z,101418.87
2018-09-05T10:02:38.535Z,101411.62
2018-09-05T10:05:12.224Z,101402.32
2018-09-05T10:07:45.799Z,101402.73
2018-09-05T10:10:19.751Z,101392.98
2018-09-05T10:12:51.732Z,101408.24
2018-09-05T10:15:25.449Z,101406.72
2018-09-05T10:17:59.151Z,101405.38
2018-09-05T10:20:27.516Z,101414.11
2018-09-05T10:22:55.866Z,101414.78
2018-09-05T10:25:24.203Z,101419.56
2018-09-05T10:27:52.540Z,101416.91
2018-09-05T10:30:20.891Z,101409.55
2018-09-05T10:32:49.238Z,101409.16
2018-09-05T10:35:17.555Z,101413.72
2018-09-05T10:37:45.914Z,101411.94
2018-09-05T10:40:14.274Z,101400.85
2018-09-05T10:42:42.589Z,101406.63
2018-09-05T10:45:10.933Z,101398.75
2018-09-05T10:47:39.278Z,101402.08
2018-09-05T10:50:07.625Z,101398.33
2018-09-05T10:52:35.971Z,101397.47
2018-09-05T10:55:04.329Z,101395.23
2018-09-05T10:57:32.661Z,101395.86
2018-09-05T11:00:01.029Z,101395.30
2018-09-05T11:02:29.379Z,101388.52
2018-09-05T11:04:57.725Z,101391.55
2018-09-05T11:07:26.074Z,101393.62
2018-09-05T11:09:54.418Z,101388.12
2018-09-05T11:12:22.763Z,101387.23
2018-09-05T11:14:51.108Z,101389.75
2018-09-05T11:17:19.449Z,101387.45
2018-09-05T11:19:47.767Z,101374.28
2018-09-05T11:22:16.105Z,101373.94
2018-09-05T11:24:44.475Z,101385.91
2018-09-05T11:27:12.836Z,101375.91
2018-09-05T11:29:41.197Z,101384.42
2018-09-05T11:32:09.557Z,101375.83
2018-09-05T11:34:37.941Z,101381.24
2018-09-05T11:37:06.420Z,101376.38
2018-09-05T11:39:34.722Z,101374.94
2018-09-05T11:42:03.072Z,101378.45
2018-09-05T11:44:31.518Z,101377.39
2018-09-05T11:46:59.876Z,101377.09
2018-09-05T11:49:28.228Z,101375.05
2018-09-05T11:51:56.552Z,101375.70
2018-09-05T11:54:24.894Z,101382.84
2018-09-05T11:56:53.212Z,101385.06
2018-09-05T11:59:21.567Z,101381.12
2018-09-05T12:01:49.900Z,101386.06
2018-09-05T12:04:18.312Z,101384.12
2018-09-05T12:06:46.656Z,101380.94
2018-09-05T12:09:15.477Z,101381.58
2018-09-05T12:11:43.863Z,101374.84
2018-09-05T12:14:12.173Z,101373.77
2018-09-05T12:16:40.538Z,101370.83
2018-09-05T12:19:08.861Z,101369.89
2018-09-05T12:23:01.689Z,101367.75
2018-09-05T12:25:30.047Z,101366.61
2018-09-05T12:27:58.376Z,101356.03
2018-09-05T12:30:26.824Z,101358.73
2018-09-05T12:32:55.168Z,101358.39
2018-09-05T12:35:23.519Z,101356.63
2018-09-05T12:37:51.854Z,101352.16
2018-09-05T12:40:20.170Z,101341.28
2018-09-05T12:42:48.760Z,101343.59
2018-09-05T12:45:17.128Z,101350.31
2018-09-05T12:47:45.509Z,101335.30
2018-09-05T12:50:14.540Z,101337.56
2018-09-05T12:52:42.910Z,101344.05
2018-09-05T12:55:11.264Z,101331.19
2018-09-05T12:57:39.592Z,101332.84
2018-09-05T13:00:07.984Z,101335.43
2018-09-05T13:02:36.306Z,101329.52
2018-09-05T13:05:04.761Z,101326.17
2018-09-05T13:07:33.072Z,101321.86
2018-09-05T13:10:01.432Z,101320.12
2018-09-05T13:12:29.783Z,101322.20
2018-09-05T13:14:58.132Z,101311.73
2018-09-05T13:17:26.526Z,101310.56
2018-09-05T13:19:54.952Z,101316.65
2018-09-05T13:22:23.502Z,101312.59
2018-09-05T13:24:51.869Z,101315.93
2018-09-05T13:27:20.195Z,101313.96
2018-09-05T13:29:48.771Z,101305.52
2018-09-05T13:32:17.094Z,101313.96
2018-09-05T13:34:45.428Z,101321.41
2018-09-05T13:37:13.777Z,101308.26
2018-09-05T13:39:42.101Z,101320.80
2018-09-05T13:42:10.433Z,101308.53
2018-09-05T13:44:38.784Z,101315.52
2018-09-05T13:47:07.124Z,101313.36
2018-09-05T13:49:35.456Z,101321.39
2018-09-05T13:52:06.032Z,101316.41
2018-09-05T13:54:36.173Z,101314.69
2018-09-05T13:57:05.323Z,101312.06
2018-09-05T13:59:34.922Z,101304.62
2018-09-05T14:02:03.467Z,101302.85
2018-09-05T14:04:31.925Z,101300.97
2018-09-05T14:07:01.164Z,101291.30
2018-09-05T14:09:30.361Z,101298.23
2018-09-05T14:11:58.960Z,101299.17
2018-09-05T14:14:27.284Z,101296.00
2018-09-05T14:16:55.618Z,101292.98
2018-09-05T14:19:24.133Z,101295.80
2018-09-05T14:21:52.464Z,101286.91
2018-09-05T14:24:20.824Z,101291.02
2018-09-05T14:26:49.179Z,101287.22
2018-09-05T14:29:17.515Z,101291.18
2018-09-05T14:31:45.835Z,101285.54
2018-09-05T14:34:14.164Z,101282.52
2018-09-05T14:36:42.560Z,101288.52
2018-09-05T14:39:12.908Z,101284.27
2018-09-05T14:41:41.400Z,101281.29
2018-09-05T14:44:09.963Z,101283.55
2018-09-05T14:46:38.297Z,101279.36
2018-09-05T14:49:06.842Z,101284.84
2018-09-05T14:51:35.865Z,101277.75
2018-09-05T14:54:04.270Z,101275.75
2018-09-05T14:56:32.566Z,101267.36
2018-09-05T14:59:00.883Z,101267.52
2018-09-05T15:01:29.229Z,101264.03
2018-09-05T15:03:57.596Z,101262.08
2018-09-05T15:06:25.962Z,101263.61
2018-09-05T15:08:54.282Z,101261.60
2018-09-05T15:11:22.616Z,101262.81
2018-09-05T15:13:50.941Z,101266.70
2018-09-05T15:16:19.297Z,101263.23
2018-09-05T15:18:47.601Z,101260.06
2018-09-05T15:21:15.916Z,101265.78
2018-09-05T15:23:44.249Z,101260.58
2018-09-05T15:26:12.611Z,101259.55
2018-09-05T15:28:41.100Z,101256.45
2018-09-05T15:31:09.433Z,101251.84
2018-09-05T15:33:38.011Z,101252.05
2018-09-05T15:36:06.368Z,101251.61
2018-09-05T15:38:34.728Z,101260.78
2018-09-05T15:41:03.083Z,101250.47
2018-09-05T15:43:31.407Z,101258.47
2018-09-05T15:45:59.751Z,101253.92
2018-09-05T15:48:28.102Z,101256.44
2018-09-05T15:50:56.461Z,101249.07
2018-09-05T15:53:24.772Z,101256.63
2018-09-05T15:55:53.083Z,101253.23
2018-09-05T15:58:21.412Z,101257.14
2018-09-05T16:00:49.735Z,101260.04
2018-09-05T16:03:18.069Z,101258.58
2018-09-05T16:05:46.386Z,101257.13
2018-09-05T16:08:14.723Z,101256.10
2018-09-05T16:10:43.106Z,101250.98
2018-09-05T16:13:11.442Z,101252.86
2018-09-05T16:15:39.888Z,101244.70
2018-09-05T16:18:08.125Z,101249.44
2018-09-05T16:20:36.475Z,101243.63
2018-09-05T16:23:04.794Z,101242.84
2018-09-05T16:25:33.131Z,101245.31
2018-09-05T16:28:01.467Z,101239.95
2018-09-05T16:30:29.788Z,101237.78
2018-09-05T16:32:58.123Z,101234.80
2018-09-05T16:35:26.558Z,101234.71
2018-09-05T16:37:54.904Z,101234.48
2018-09-05T16:40:23.652Z,101233.41
2018-09-05T16:42:51.988Z,101240.52
2018-09-05T16:45:20.312Z,101239.15
2018-09-05T16:47:48.632Z,101241.44
2018-09-05T16:50:16.982Z,101236.47
2018-09-05T16:52:45.304Z,101244.69
2018-09-05T16:55:13.639Z,101242.84
2018-09-05T16:57:42.060Z,101241.47
2018-09-05T17:00:10.396Z,101242.35
2018-09-05T17:02:38.712Z,101238.66
2018-09-05T17:05:07.164Z,101233.80
2018-09-05T17:07:35.542Z,101239.78
2018-09-05T17:10:05.775Z,101240.08
2018-09-05T17:12:35.519Z,101245.07
2018-09-05T17:15:03.961Z,101242.12
2018-09-05T17:17:32.292Z,101251.72
2018-09-05T17:20:00.603Z,101246.90
2018-09-05T17:22:29.020Z,101244.69
2018-09-05T17:24:57.279Z,101248.58
2018-09-05T17:27:25.606Z,101249.95
2018-09-05T17:29:53.952Z,101242.91
2018-09-05T17:32:22.320Z,101249.14
2018-09-05T17:34:50.675Z,101243.83
2018-09-05T17:37:19.226Z,101241.34
2018-09-05T17:39:47.540Z,101249.81
2018-09-05T17:42:15.859Z,101251.08
2018-09-05T17:44:44.191Z,101252.84
2018-09-05T17:47:12.503Z,101256.22
2018-09-05T17:49:40.882Z,101262.06
2018-09-05T17:52:10.474Z,101261.20
2018-09-05T17:54:38.840Z,101264.80
2018-09-05T17:57:07.181Z,101262.20
2018-09-05T17:59:35.560Z,101261.48
2018-09-05T18:02:03.907Z,101260.62
2018-09-05T18:04:32.272Z,101261.88
2018-09-05T18:07:00.632Z,101251.69
2018-09-05T18:09:28.967Z,101262.05
2018-09-05T18:11:57.289Z,101259.17
2018-09-05T18:14:25.690Z,101259.20
2018-09-05T18:16:54.044Z,101257.47
2018-09-05T18:19:22.359Z,101259.33
2018-09-05T18:21:50.698Z,101257.23
2018-09-05T18:24:19.029Z,101262.59
2018-09-05T18:26:47.364Z,101262.83
2018-09-05T18:29:15.687Z,101261.85
2018-09-05T18:31:44.048Z,101263.47
2018-09-05T18:34:12.432Z,101258.62
2018-09-05T18:36:40.774Z,101259.49
2018-09-05T18:39:09.490Z,101266.55
2018-09-05T18:41:38.071Z,101265.19
2018-09-05T18:44:06.421Z,101258.38
2018-09-05T18:46:34.792Z,101267.94
2018-09-05T18:49:03.191Z,101265.08
2018-09-05T18:51:31.671Z,101260.36
2018-09-05T18:53:59.996Z,101263.07
2018-09-05T18:56:28.340Z,101266.45
2018-09-05T18:58:56.694Z,101270.41
2018-09-05T19:01:25.030Z,101269.78
2018-09-05T19:03:53.485Z,101265.56
2018-09-05T19:06:21.815Z,101275.48
2018-09-05T19:08:50.138Z,101274.39
2018-09-05T19:11:18.442Z,101268.93
2018-09-05T19:13:46.777Z,101275.36
2018-09-05T19:16:15.111Z,101271.03
2018-09-05T19:18:43.476Z,101266.07
2018-09-05T19:21:11.819Z,101272.50
2018-09-05T19:23:40.213Z,101270.41
2018-09-05T19:26:08.553Z,101268.17
2018-09-05T19:28:36.904Z,101272.00
2018-09-05T19:31:05.288Z,101280.19
2018-09-05T19:33:33.628Z,101274.97
2018-09-05T19:36:01.939Z,101272.88
2018-09-05T19:38:30.313Z,101269.38
2018-09-05T19:40:58.627Z,101276.94
2018-09-05T19:43:26.960Z,101281.03
2018-09-05T19:45:55.309Z,101276.70
2018-09-05T19:48:23.636Z,101278.17
2018-09-05T19:50:51.981Z,101281.03
2018-09-05T19:53:20.317Z,101278.54
2018-09-05T19:55:48.655Z,101280.14
2018-09-05T19:58:16.984Z,101279.17
2018-09-05T20:00:45.338Z,101280.77
2018-09-05T20:03:13.732Z,101286.45
2018-09-05T20:05:42.096Z,101281.83
2018-09-05T20:08:10.424Z,101290.61
2018-09-05T20:10:38.766Z,101285.79
2018-09-05T20:13:07.716Z,101283.79
2018-09-05T20:15:36.082Z,101293.06
2018-09-05T20:18:04.425Z,101292.57
2018-09-05T20:20:33.056Z,101280.42
2018-09-05T20:23:01.406Z,101284.75
2018-09-05T20:25:29.888Z,101283.38
2018-09-05T20:27:58.209Z,101289.42
2018-09-05T20:30:26.552Z,101280.52
2018-09-05T20:32:54.944Z,101280.87
2018-09-05T20:35:23.237Z,101285.55
2018-09-05T20:37:51.588Z,101290.27
2018-09-05T20:40:22.545Z,101294.72
2018-09-05T20:42:50.904Z,101292.72
2018-09-05T20:45:19.248Z,101290.59
2018-09-05T20:47:47.586Z,101292.58
2018-09-05T20:50:15.933Z,101289.08
2018-09-05T20:52:44.269Z,101291.52
2018-09-05T20:55:12.588Z,101291.66
2018-09-05T20:57:41.365Z,101285.92
2018-09-05T21:00:09.701Z,101285.42
2018-09-05T21:02:38.032Z,101283.33
2018-09-05T21:05:06.403Z,101282.31
2018-09-05T21:07:34.768Z,101282.91
2018-09-05T21:10:03.112Z,101285.34
2018-09-05T21:12:31.526Z,101284.47
2018-09-05T21:14:59.859Z,101279.34
2018-09-05T21:17:28.177Z,101286.73
2018-09-05T21:19:56.598Z,101284.48
2018-09-05T21:22:24.934Z,101285.48
2018-09-05T21:24:53.273Z,101290.65
2018-09-05T21:27:21.863Z,101283.34
2018-09-05T21:29:50.144Z,101280.31
2018-09-05T21:32:18.473Z,101282.30
2018-09-05T21:34:47.418Z,101283.88
2018-09-05T21:37:15.756Z,101287.91
2018-09-05T21:39:44.074Z,101283.58
2018-09-05T21:42:12.423Z,101282.70
2018-09-05T21:44:40.758Z,101288.25
2018-09-05T21:47:09.098Z,101285.65
2018-09-05T21:49:37.418Z,101282.55
2018-09-05T21:52:05.850Z,101288.71
2018-09-05T21:54:34.604Z,101284.47
2018-09-05T21:57:02.932Z,101287.41
2018-09-05T21:59:31.303Z,101278.38
2018-09-05T22:01:59.615Z,101280.57
2018-09-05T22:04:28.091Z,101280.66
2018-09-05T22:06:56.484Z,101281.00
2018-09-05T22:09:24.794Z,101280.13
2018-09-05T22:11:53.139Z,101286.00
2018-09-05T22:14:21.458Z,101280.03
2018-09-05T22:16:49.793Z,101278.70
2018-09-05T22:19:18.140Z,101282.16
2018-09-05T22:21:46.482Z,101281.22
2018-09-05T22:24:14.849Z,101284.07
2018-09-05T22:26:43.179Z,101280.48
2018-09-05T22:29:11.498Z,101285.15
2018-09-05T22:31:39.836Z,101274.98
2018-09-05T22:34:08.241Z,101283.05
2018-09-05T22:36:36.575Z,101283.80
2018-09-05T22:39:06.903Z,101277.70
2018-09-05T22:41:35.306Z,101276.09
2018-09-05T22:44:14.936Z,101271.73
2018-09-05T22:46:54.683Z,101271.84
2018-09-05T22:52:13.984Z,101277.37
2018-09-05T22:57:08.054Z,101283.52
2018-09-05T23:00:45.412Z,101270.58
2018-09-05T23:03:27.693Z,101268.47
2018-09-05T23:06:07.428Z,101279.76
2018-09-05T23:08:39.234Z,101270.85
2018-09-05T23:11:19.300Z,101273.94
2018-09-05T23:14:00.141Z,101268.34
2018-09-05T23:16:40.555Z,101267.19
2018-09-05T23:19:48.174Z,101265.25
2018-09-05T23:22:16.652Z,101257.67
2018-09-05T23:24:45.175Z,101259.81
2018-09-05T23:27:14.204Z,101256.11
2018-09-05T23:29:42.958Z,101254.37
2018-09-05T23:32:11.349Z,101250.70
2018-09-05T23:34:39.714Z,101240.53
2018-09-05T23:37:08.052Z,101245.14
2018-09-05T23:39:36.404Z,101246.05
2018-09-05T23:42:04.838Z,101247.07
2018-09-05T23:44:33.165Z,101245.22
2018-09-05T23:47:01.676Z,101243.95
2018-09-05T23:49:29.999Z,101237.22
2018-09-05T23:51:58.324Z,101239.98
2018-09-05T23:54:26.732Z,101238.75
2018-09-05T23:56:55.088Z,101235.86
2018-09-05T23:59:23.417Z,101240.80
